createdAt,value
2022-09-12T00:00:45.057Z,13.77
2022-09-12T00:03:11.885Z,13.66
2022-09-12T00:05:42.963Z,13.59
2022-09-12T00:08:10.065Z,13.49
2022-09-12T00:10:41.223Z,13.57
2022-09-12T00:13:09.098Z,13.54
2022-09-12T00:15:45.323Z,13.23
2022-09-12T00:18:17.066Z,13.67
2022-09-12T00:20:46.750Z,13.63
2022-09-12T00:23:14.521Z,13.55
2022-09-12T00:25:43.746Z,13.34
2022-09-12T00:28:12.001Z,13.50
2022-09-12T00:30:47.300Z,13.42
2022-09-12T00:33:16.340Z,13.38
2022-09-12T00:35:53.105Z,13.29
2022-09-12T00:38:20.806Z,13.33
2022-09-12T00:40:51.393Z,13.40
2022-09-12T00:43:30.126Z,13.34
2022-09-12T00:45:59.318Z,13.15
2022-09-12T00:48:42.009Z,13.22
2022-09-12T00:51:09.276Z,12.87
2022-09-12T00:53:36.343Z,13.01
2022-09-12T00:56:03.626Z,13.03
2022-09-12T00:58:36.955Z,13.21
2022-09-12T01:01:03.913Z,12.92
2022-09-12T01:03:30.770Z,12.90
2022-09-12T01:06:10.001Z,13.18
2022-09-12T01:08:39.081Z,13.01
2022-09-12T01:11:06.335Z,13.06
2022-09-12T01:13:35.962Z,12.99
2022-09-12T01:16:07.168Z,13.05
2022-09-12T01:18:44.350Z,13.01
2022-09-12T01:21:42.801Z,13.10
2022-09-12T01:24:24.681Z,13.02
2022-09-12T01:27:17.182Z,12.95
2022-09-12T01:30:04.701Z,12.65
2022-09-12T01:32:46.631Z,12.86
2022-09-12T01:35:26.099Z,12.85
2022-09-12T01:38:37.282Z,12.69
2022-09-12T01:41:22.532Z,12.86
2022-09-12T01:44:20.297Z,12.65
2022-09-12T01:46:47.304Z,12.82
2022-09-12T01:49:21.797Z,12.60
2022-09-12T01:52:03.611Z,12.71
2022-09-12T01:54:44.403Z,12.73
2022-09-12T01:57:18.958Z,12.55
2022-09-12T01:59:50.763Z,12.37
2022-09-12T02:02:34.114Z,12.25
2022-09-12T02:05:17.448Z,12.40
2022-09-12T02:07:49.884Z,12.32
2022-09-12T02:10:22.678Z,12.47
2022-09-12T02:13:12.665Z,12.51
2022-09-12T02:15:51.317Z,12.55
2022-09-12T02:18:21.341Z,12.57
2022-09-12T02:20:51.491Z,12.35
2022-09-12T02:23:26.715Z,12.45
2022-09-12T02:26:00.578Z,12.54
2022-09-12T02:28:33.207Z,12.48
2022-09-12T02:31:05.824Z,12.48
2022-09-12T02:34:00.485Z,12.68
2022-09-12T02:36:40.237Z,12.56
2022-09-12T02:39:07.293Z,12.49
2022-09-12T02:41:34.110Z,12.42
2022-09-12T02:44:01.518Z,12.35
2022-09-12T02:46:39.268Z,12.59
2022-09-12T02:49:07.355Z,12.52
2022-09-12T02:51:35.762Z,12.45
2022-09-12T02:54:03.695Z,12.35
2022-09-12T02:56:31.513Z,12.34
2022-09-12T02:59:05.812Z,12.55
2022-09-12T03:02:05.195Z,12.43
2022-09-12T03:04:48.910Z,12.49
2022-09-12T03:07:47.978Z,12.37
2022-09-12T03:10:39.663Z,12.59
2022-09-12T03:13:23.402Z,12.50
2022-09-12T03:16:19.961Z,12.54
2022-09-12T03:19:10.014Z,12.43
2022-09-12T03:22:02.447Z,12.50
2022-09-12T03:24:49.636Z,12.45
2022-09-12T03:27:27.746Z,12.51
2022-09-12T03:29:56.497Z,12.31
2022-09-12T03:32:42.245Z,12.43
2022-09-12T03:35:10.745Z,12.49
2022-09-12T03:37:37.529Z,12.44
2022-09-12T03:40:09.165Z,12.44
2022-09-12T03:42:36.267Z,12.35
2022-09-12T03:45:03.342Z,12.22
2022-09-12T03:47:30.193Z,12.41
2022-09-12T03:49:56.992Z,12.32
2022-09-12T03:52:23.800Z,12.43
2022-09-12T03:54:51.127Z,12.37
2022-09-12T03:57:18.162Z,12.30
2022-09-12T03:59:45.202Z,12.49
2022-09-12T04:02:13.700Z,12.28
2022-09-12T04:04:48.165Z,12.32
2022-09-12T04:07:16.604Z,12.30
2022-09-12T04:09:43.476Z,12.16
2022-09-12T04:12:10.473Z,12.27
2022-09-12T04:14:37.444Z,12.17
2022-09-12T04:17:04.372Z,12.13
2022-09-12T04:19:31.133Z,12.29
2022-09-12T04:21:57.916Z,12.01
2022-09-12T04:24:24.631Z,11.98
2022-09-12T04:26:51.599Z,11.98
2022-09-12T04:29:18.336Z,12.14
2022-09-12T04:31:45.120Z,12.10
2022-09-12T04:34:15.777Z,12.18
2022-09-12T04:36:56.853Z,12.21
2022-09-12T04:39:23.710Z,11.90
2022-09-12T04:41:50.600Z,12.08
2022-09-12T04:44:29.012Z,11.95
2022-09-12T04:46:56.058Z,12.03
2022-09-12T04:49:23.338Z,11.87
2022-09-12T04:51:54.278Z,11.74
2022-09-12T04:54:21.630Z,12.00
2022-09-12T04:56:50.040Z,11.79
2022-09-12T04:59:18.634Z,12.02
2022-09-12T05:01:45.643Z,11.77
2022-09-12T05:04:13.617Z,11.69
2022-09-12T05:06:41.946Z,11.91
2022-09-12T05:09:14.198Z,12.20
2022-09-12T05:14:32.674Z,12.21
2022-09-12T05:17:01.853Z,12.22
2022-09-12T05:19:30.561Z,12.44
2022-09-12T05:21:57.428Z,12.50
2022-09-12T05:24:25.016Z,12.56
2022-09-12T05:26:52.148Z,12.75
2022-09-12T05:29:19.168Z,12.84
2022-09-12T05:31:46.056Z,12.67
2022-09-12T05:34:13.613Z,12.45
2022-09-12T05:36:40.642Z,13.06
2022-09-12T05:39:07.356Z,13.17
2022-09-12T05:41:35.121Z,13.28
2022-09-12T05:44:04.816Z,13.02
2022-09-12T05:46:37.358Z,13.15
2022-09-12T05:49:10.104Z,13.07
2022-09-12T05:51:39.891Z,13.20
2022-09-12T05:54:08.377Z,13.07
2022-09-12T05:56:39.625Z,13.31
2022-09-12T05:59:12.272Z,13.18
2022-09-12T06:01:39.253Z,13.41
2022-09-12T06:04:07.073Z,13.51
2022-09-12T06:06:38.774Z,13.44
2022-09-12T06:09:06.747Z,13.22
2022-09-12T06:11:35.795Z,13.66
2022-09-12T06:14:02.640Z,13.69
2022-09-12T06:16:32.419Z,13.71
2022-09-12T06:19:03.581Z,13.70
2022-09-12T06:21:34.657Z,13.61
2022-09-12T06:24:01.974Z,13.83
2022-09-12T06:26:29.474Z,14.06
2022-09-12T06:28:57.736Z,14.32
2022-09-12T06:31:30.705Z,14.46
2022-09-12T06:34:00.891Z,14.55
2022-09-12T06:36:32.432Z,14.86
2022-09-12T06:39:02.186Z,14.76
2022-09-12T06:41:29.727Z,14.79
2022-09-12T06:43:56.511Z,14.83
2022-09-12T06:46:23.512Z,14.84
2022-09-12T06:48:50.911Z,15.06
2022-09-12T06:51:20.256Z,14.84
2022-09-12T06:53:48.556Z,15.01
2022-09-12T06:56:20.709Z,14.92
2022-09-12T06:58:49.235Z,15.11
2022-09-12T07:01:18.267Z,15.37
2022-09-12T07:03:50.251Z,15.17
2022-09-12T07:06:19.953Z,15.28
2022-09-12T07:08:47.698Z,15.18
2022-09-12T07:11:18.350Z,15.49
2022-09-12T07:13:47.750Z,15.60
2022-09-12T07:16:19.398Z,15.65
2022-09-12T07:18:51.336Z,15.48
2022-09-12T07:21:18.139Z,15.70
2022-09-12T07:23:45.754Z,15.67
2022-09-12T07:26:14.594Z,15.92
2022-09-12T07:28:42.216Z,15.62
2022-09-12T07:31:15.034Z,15.86
2022-09-12T07:33:42.973Z,15.96
2022-09-12T07:36:15.196Z,15.90
2022-09-12T07:38:42.817Z,16.25
2022-09-12T07:41:17.783Z,16.38
2022-09-12T07:43:45.122Z,16.41
2022-09-12T07:46:12.601Z,16.37
2022-09-12T07:48:39.886Z,16.43
2022-09-12T07:51:09.435Z,16.87
2022-09-12T07:53:41.629Z,17.10
2022-09-12T07:56:13.282Z,17.23
2022-09-12T07:58:42.222Z,17.79
2022-09-12T08:01:14.936Z,18.06
2022-09-12T08:03:44.520Z,18.02
2022-09-12T08:06:12.312Z,18.00
2022-09-12T08:08:39.073Z,17.91
2022-09-12T08:11:11.942Z,17.73
2022-09-12T08:13:40.912Z,18.06
2022-09-12T08:16:12.333Z,18.30
2022-09-12T08:18:39.796Z,18.42
2022-09-12T08:21:14.547Z,18.57
2022-09-12T08:23:42.795Z,18.79
2022-09-12T08:26:10.438Z,18.72
2022-09-12T08:28:37.929Z,18.93
2022-09-12T08:31:07.415Z,19.32
2022-09-12T08:33:35.602Z,19.40
2022-09-12T08:36:14.355Z,19.14
2022-09-12T08:38:43.379Z,19.15
2022-09-12T08:41:19.696Z,19.04
2022-09-12T08:44:04.913Z,19.05
2022-09-12T08:46:34.455Z,19.03
2022-09-12T08:49:04.066Z,19.04
2022-09-12T08:51:34.882Z,18.83
2022-09-12T08:54:03.283Z,19.14
2022-09-12T08:56:35.740Z,19.62
2022-09-12T08:59:03.281Z,19.89
2022-09-12T09:01:41.687Z,19.73
2022-09-12T09:04:56.943Z,19.89
2022-09-12T09:07:55.051Z,19.96
2022-09-12T09:10:35.594Z,19.91
2022-09-12T09:13:40.983Z,20.19
2022-09-12T09:16:07.881Z,20.72
2022-09-12T09:18:36.149Z,20.72
2022-09-12T09:21:13.331Z,20.68
2022-09-12T09:23:44.733Z,21.44
2022-09-12T09:26:26.739Z,21.46
2022-09-12T09:29:05.986Z,21.61
2022-09-12T09:31:38.772Z,21.20
2022-09-12T09:34:15.552Z,20.80
2022-09-12T09:36:51.459Z,20.88
2022-09-12T09:39:42.617Z,21.07
2022-09-12T09:42:34.152Z,21.62
2022-09-12T09:45:04.721Z,22.04
2022-09-12T09:47:31.535Z,22.17
2022-09-12T09:49:58.476Z,22.23
2022-09-12T09:52:30.591Z,22.37
2022-09-12T09:55:02.135Z,22.46
2022-09-12T09:57:35.007Z,22.27
2022-09-12T10:00:32.272Z,21.98
2022-09-12T10:03:24.389Z,22.67
2022-09-12T10:05:55.389Z,23.23
2022-09-12T10:08:31.091Z,23.21
2022-09-12T10:11:04.643Z,23.18
2022-09-12T10:13:42.143Z,23.18
2022-09-12T10:16:19.616Z,23.26
2022-09-12T10:18:46.713Z,22.92
2022-09-12T10:21:35.327Z,22.49
2022-09-12T10:24:30.953Z,22.92
2022-09-12T10:27:33.948Z,23.41
2022-09-12T10:30:17.882Z,23.39
2022-09-12T10:32:50.704Z,24.03
2022-09-12T10:35:28.613Z,24.39
2022-09-12T10:38:02.972Z,23.95
2022-09-12T10:40:36.521Z,24.00
2022-09-12T10:43:18.035Z,23.77
2022-09-12T10:45:45.003Z,23.99
2022-09-12T10:48:32.026Z,24.93
2022-09-12T10:51:01.523Z,25.44
2022-09-12T10:53:46.650Z,25.91
2022-09-12T10:56:18.966Z,25.65
2022-09-12T10:59:16.806Z,25.96
2022-09-12T11:01:49.519Z,25.21
2022-09-12T11:04:26.995Z,24.73
2022-09-12T11:07:50.419Z,24.03
2022-09-12T11:10:27.209Z,24.30
2022-09-12T11:12:59.475Z,23.63
2022-09-12T11:15:35.666Z,23.20
2022-09-12T11:18:05.251Z,22.94
2022-09-12T11:20:44.247Z,22.60
2022-09-12T11:23:53.188Z,21.84
2022-09-12T11:26:48.726Z,21.91
2022-09-12T11:29:47.025Z,21.73
2022-09-12T11:32:35.988Z,21.42
2022-09-12T11:35:17.124Z,21.05
2022-09-12T11:37:55.887Z,20.32
2022-09-12T11:40:46.509Z,20.04
2022-09-12T11:43:36.444Z,19.60
2022-09-12T11:46:25.170Z,19.44
2022-09-12T11:49:12.001Z,19.82
2022-09-12T11:51:49.917Z,20.35
2022-09-12T11:54:41.796Z,20.23
2022-09-12T11:57:37.721Z,20.47
2022-09-12T12:00:18.206Z,20.45
2022-09-12T12:03:06.609Z,20.82
2022-09-12T12:05:52.469Z,20.58
2022-09-12T12:08:25.086Z,20.39
2022-09-12T12:10:56.554Z,20.31
2022-09-12T12:13:28.495Z,20.75
2022-09-12T12:16:01.253Z,21.06
2022-09-12T12:18:30.542Z,21.06
2022-09-12T12:21:29.750Z,20.93
2022-09-12T12:24:10.153Z,20.93
2022-09-12T12:26:42.812Z,20.49
2022-09-12T12:29:35.154Z,20.39
2022-09-12T12:32:04.877Z,20.77
2022-09-12T12:34:35.642Z,20.71
2022-09-12T12:37:23.426Z,20.68
2022-09-12T12:39:51.148Z,20.73
2022-09-12T12:42:36.164Z,20.85
2022-09-12T12:45:08.936Z,20.89
2022-09-12T12:47:38.539Z,20.85
2022-09-12T12:50:05.198Z,20.90
2022-09-12T12:52:42.626Z,20.91
2022-09-12T12:55:16.148Z,20.99
2022-09-12T12:57:48.713Z,20.99
2022-09-12T13:00:21.262Z,21.09
2022-09-12T13:03:27.885Z,20.72
2022-09-12T13:06:07.477Z,20.77
2022-09-12T13:08:36.210Z,20.67
2022-09-12T13:11:10.817Z,20.25
2022-09-12T13:14:02.971Z,20.37
2022-09-12T13:16:35.084Z,20.19
2022-09-12T13:19:18.330Z,20.01
2022-09-12T13:21:57.802Z,19.93
2022-09-12T13:24:24.791Z,20.11
2022-09-12T13:26:51.610Z,20.08
2022-09-12T13:29:19.983Z,19.89
2022-09-12T13:31:51.295Z,19.91
2022-09-12T13:34:22.781Z,19.92
2022-09-12T13:37:17.176Z,19.77
2022-09-12T13:40:01.537Z,19.63
2022-09-12T13:42:45.531Z,19.77
2022-09-12T13:45:30.013Z,19.81
2022-09-12T13:48:04.611Z,19.82
2022-09-12T13:50:37.844Z,19.42
2022-09-12T13:53:14.981Z,19.60
2022-09-12T13:55:46.336Z,19.65
2022-09-12T13:58:23.281Z,19.63
2022-09-12T14:01:14.052Z,19.27
2022-09-12T14:04:02.118Z,19.45
2022-09-12T14:06:28.956Z,19.37
2022-09-12T14:08:59.300Z,19.13
2022-09-12T14:11:33.970Z,19.09
2022-09-12T14:14:40.851Z,19.27
2022-09-12T14:17:23.799Z,19.34
2022-09-12T14:19:53.193Z,18.99
2022-09-12T14:22:20.389Z,18.96
2022-09-12T14:24:51.957Z,19.23
2022-09-12T14:27:31.917Z,19.00
2022-09-12T14:30:07.634Z,19.10
2022-09-12T14:32:39.682Z,19.10
2022-09-12T14:35:12.118Z,19.05
2022-09-12T14:37:40.046Z,19.02
2022-09-12T14:40:20.001Z,18.99
2022-09-12T14:43:04.557Z,18.72
2022-09-12T14:45:33.630Z,18.74
2022-09-12T14:48:00.503Z,19.11
2022-09-12T14:50:35.701Z,19.38
2022-09-12T14:53:07.218Z,19.60
2022-09-12T14:56:11.240Z,19.73
2022-09-12T14:58:40.171Z,19.61
2022-09-12T15:01:23.480Z,19.82
2022-09-12T15:03:53.991Z,19.68
2022-09-12T15:06:38.377Z,19.84
2022-09-12T15:09:13.754Z,19.64
2022-09-12T15:11:40.559Z,19.50
2022-09-12T15:14:18.096Z,19.33
2022-09-12T15:16:44.876Z,19.26
2022-09-12T15:19:12.018Z,18.97
2022-09-12T15:21:38.795Z,18.84
2022-09-12T15:24:09.068Z,18.75
2022-09-12T15:26:36.932Z,18.82
2022-09-12T15:29:04.151Z,18.79
2022-09-12T15:31:32.298Z,18.88
2022-09-12T15:34:01.319Z,18.85
2022-09-12T15:36:45.357Z,19.05
2022-09-12T15:39:21.307Z,19.17
2022-09-12T15:41:48.622Z,19.21
2022-09-12T15:44:16.040Z,19.46
2022-09-12T15:46:42.897Z,19.63
2022-09-12T15:49:19.884Z,19.69
2022-09-12T15:51:55.428Z,19.71
2022-09-12T15:54:22.384Z,19.75
2022-09-12T15:56:49.812Z,19.87
2022-09-12T15:59:36.505Z,20.14
2022-09-12T16:02:03.655Z,19.87
2022-09-12T16:04:32.741Z,19.95
2022-09-12T16:07:07.367Z,20.09
2022-09-12T16:09:34.591Z,20.31
2022-09-12T16:12:09.929Z,20.24
2022-09-12T16:14:59.362Z,20.11
2022-09-12T16:17:26.553Z,20.19
2022-09-12T16:19:53.679Z,20.26
2022-09-12T16:22:20.570Z,19.84
2022-09-12T16:24:47.282Z,19.44
2022-09-12T16:27:14.168Z,19.48
2022-09-12T16:29:42.158Z,19.34
2022-09-12T16:32:08.899Z,19.01
2022-09-12T16:34:35.646Z,18.70
2022-09-12T16:37:03.984Z,18.64
2022-09-12T16:39:30.833Z,18.55
2022-09-12T16:41:57.621Z,18.36
2022-09-12T16:44:24.448Z,18.24
2022-09-12T16:46:51.412Z,18.04
2022-09-12T16:49:18.302Z,18.09
2022-09-12T16:51:47.653Z,18.04
2022-09-12T16:54:15.921Z,17.72
2022-09-12T16:56:43.019Z,17.41
2022-09-12T16:59:16.927Z,17.32
2022-09-12T17:01:45.500Z,17.41
2022-09-12T17:04:12.458Z,17.13
2022-09-12T17:06:39.336Z,17.19
2022-09-12T17:09:06.586Z,16.76
2022-09-12T17:11:38.897Z,16.77
2022-09-12T17:14:08.854Z,16.62
2022-09-12T17:16:41.933Z,16.49
2022-09-12T17:19:12.521Z,16.43
2022-09-12T17:21:39.528Z,16.30
2022-09-12T17:24:06.574Z,16.15
2022-09-12T17:26:34.545Z,16.19
2022-09-12T17:29:14.483Z,16.04
2022-09-12T17:31:43.281Z,16.10
2022-09-12T17:34:29.483Z,15.99
2022-09-12T17:37:10.703Z,15.60
2022-09-12T17:39:43.899Z,15.62
2022-09-12T17:42:19.475Z,15.63
2022-09-12T17:44:55.052Z,15.46
2022-09-12T17:47:22.136Z,15.56
2022-09-12T17:49:51.020Z,15.34
2022-09-12T17:52:23.163Z,14.94
2022-09-12T17:54:49.933Z,14.87
2022-09-12T17:57:17.064Z,15.01
2022-09-12T17:59:53.933Z,15.06
2022-09-12T18:02:20.975Z,14.78
2022-09-12T18:04:48.516Z,14.81
2022-09-12T18:07:25.018Z,14.63
2022-09-12T18:10:10.228Z,14.68
2022-09-12T18:12:37.454Z,14.38
2022-09-12T18:15:11.976Z,14.27
2022-09-12T18:17:40.324Z,14.21
2022-09-12T18:20:07.472Z,14.34
2022-09-12T18:22:34.397Z,14.25
2022-09-12T18:25:01.493Z,14.06
2022-09-12T18:27:28.646Z,14.33
2022-09-12T18:30:20.171Z,14.03
2022-09-12T18:33:04.788Z,14.13
2022-09-12T18:35:32.436Z,13.97
2022-09-12T18:38:02.143Z,13.91
2022-09-12T18:40:29.581Z,13.73
2022-09-12T18:42:57.014Z,13.78
2022-09-12T18:45:27.198Z,13.73
2022-09-12T18:47:54.945Z,13.84
2022-09-12T18:50:25.035Z,13.70
2022-09-12T18:52:56.706Z,13.76
2022-09-12T18:55:28.810Z,13.79
2022-09-12T18:57:56.378Z,13.72
2022-09-12T19:00:23.594Z,13.64
2022-09-12T19:02:51.039Z,13.64
2022-09-12T19:05:18.672Z,13.51
2022-09-12T19:07:52.012Z,13.44
2022-09-12T19:10:21.662Z,13.51
2022-09-12T19:12:49.096Z,13.45
2022-09-12T19:15:16.294Z,13.37
2022-09-12T19:17:45.071Z,13.08
2022-09-12T19:20:13.242Z,13.38
2022-09-12T19:22:40.560Z,13.12
2022-09-12T19:25:08.438Z,13.37
2022-09-12T19:27:36.412Z,13.21
2022-09-12T19:30:04.643Z,13.04
2022-09-12T19:32:32.698Z,12.97
2022-09-12T19:35:01.472Z,13.15
2022-09-12T19:37:30.420Z,12.86
2022-09-12T19:39:59.232Z,13.07
2022-09-12T19:42:49.399Z,13.23
2022-09-12T19:45:16.301Z,13.08
2022-09-12T19:47:44.047Z,13.01
2022-09-12T19:50:12.032Z,12.93
2022-09-12T19:52:39.078Z,12.77
2022-09-12T19:55:09.531Z,12.83
2022-09-12T19:57:36.573Z,12.68
2022-09-12T20:00:07.243Z,12.70
2022-09-12T20:02:34.593Z,12.54
2022-09-12T20:05:02.057Z,12.78
2022-09-12T20:07:32.940Z,12.62
2022-09-12T20:10:00.040Z,12.44
2022-09-12T20:12:33.817Z,12.38
2022-09-12T20:15:02.251Z,12.53
2022-09-12T20:17:29.099Z,12.50
2022-09-12T20:19:56.896Z,12.50
2022-09-12T20:22:25.313Z,12.25
2022-09-12T20:24:52.703Z,12.47
2022-09-12T20:27:19.608Z,12.31
2022-09-12T20:29:46.652Z,12.37
2022-09-12T20:32:16.514Z,12.27
2022-09-12T20:34:43.752Z,12.28
2022-09-12T20:37:10.834Z,12.19
2022-09-12T20:39:37.825Z,12.01
2022-09-12T20:42:04.722Z,11.96
2022-09-12T20:44:44.288Z,11.92
2022-09-12T20:47:11.561Z,11.88
2022-09-12T20:49:38.334Z,11.96
2022-09-12T20:52:11.111Z,11.76
2022-09-12T20:54:39.981Z,12.01
2022-09-12T20:57:09.912Z,12.00
2022-09-12T20:59:40.596Z,11.94
2022-09-12T21:02:07.421Z,11.72
2022-09-12T21:04:34.216Z,11.78
2022-09-12T21:07:00.920Z,11.78
2022-09-12T21:09:27.962Z,11.58
2022-09-12T21:11:54.706Z,11.72
2022-09-12T21:14:21.466Z,11.57
2022-09-12T21:16:48.407Z,11.66
2022-09-12T21:19:15.153Z,11.66
2022-09-12T21:21:41.972Z,11.54
2022-09-12T21:24:15.082Z,11.38
2022-09-12T21:26:41.845Z,11.45
2022-09-12T21:29:09.006Z,11.27
2022-09-12T21:31:35.868Z,11.36
2022-09-12T21:34:02.993Z,11.19
2022-09-12T21:36:29.928Z,11.20
2022-09-12T21:38:59.593Z,11.16
2022-09-12T21:41:26.379Z,11.14
2022-09-12T21:43:53.498Z,10.93
2022-09-12T21:46:20.501Z,11.04
2022-09-12T21:48:47.337Z,11.14
2022-09-12T21:51:14.073Z,10.83
2022-09-12T21:53:40.888Z,11.04
2022-09-12T21:56:09.129Z,10.78
2022-09-12T21:58:37.182Z,10.84
2022-09-12T22:01:05.985Z,11.01
2022-09-12T22:03:33.042Z,10.81
2022-09-12T22:06:01.882Z,10.83
2022-09-12T22:08:30.236Z,10.98
2022-09-12T22:11:02.315Z,10.87
2022-09-12T22:13:32.530Z,10.59
2022-09-12T22:16:03.357Z,10.75
2022-09-12T22:18:32.735Z,10.52
2022-09-12T22:21:08.551Z,10.57
2022-09-12T22:23:53.847Z,10.51
2022-09-12T22:26:20.632Z,10.46
2022-09-12T22:28:47.790Z,10.64
2022-09-12T22:31:15.249Z,10.60
2022-09-12T22:33:42.370Z,10.60
2022-09-12T22:36:09.992Z,10.48
2022-09-12T22:38:37.249Z,10.25
2022-09-12T22:41:06.505Z,10.44
2022-09-12T22:43:34.704Z,10.53
2022-09-12T22:46:02.249Z,10.37
2022-09-12T22:48:29.054Z,10.36
2022-09-12T22:50:55.853Z,10.38
2022-09-12T22:53:22.625Z,10.24
2022-09-12T22:55:49.853Z,10.32
2022-09-12T22:58:16.719Z,10.05
2022-09-12T23:03:33.654Z,10.25
2022-09-12T23:06:00.522Z,9.97
2022-09-12T23:08:29.802Z,10.13
2022-09-12T23:11:03.316Z,10.07
2022-09-12T23:13:30.122Z,9.94
2022-09-12T23:15:58.707Z,10.16
2022-09-12T23:18:26.050Z,10.05
2022-09-12T23:21:00.495Z,9.94
2022-09-12T23:23:28.221Z,10.11
2022-09-12T23:26:12.936Z,9.95
2022-09-12T23:28:40.972Z,10.09
2022-09-12T23:31:09.892Z,10.05
2022-09-12T23:33:36.966Z,10.02
2022-09-12T23:36:11.568Z,9.72
2022-09-12T23:38:39.543Z,9.80
2022-09-12T23:41:06.999Z,9.75
2022-09-12T23:43:34.286Z,9.78
2022-09-12T23:46:01.807Z,9.64
2022-09-12T23:48:28.666Z,9.44
2022-09-12T23:50:55.457Z,9.64
2022-09-12T23:53:22.999Z,9.61
2022-09-12T23:55:50.137Z,9.78
2022-09-12T23:58:17.723Z,9.60
